Terminal Aerodrome Forecast
Issued by NWS

Home | Current Version | Previous Version | Text Only | Print | Product List | Glossary On
Versions: 1 2 3 4 5 6 7 8 9 10 11 12 13 14 15 16 17 18 19 20
000
FTUS45 KPIH 311100
TAFSUN
TAF
KSUN 311123Z 3112/0112 31011KT P6SM FEW150
     FM311900 12006KT P6SM SCT030
     FM010300 31011KT P6SM FEW200
      AMD LTD TO CLD VIS AND WIND TIL 311400=

USA.gov is the U.S. government's official web portal to all federal, state and local government web resources and services.